• Join FlightAware (Why Join?)
  • Login
  • US Flag 
 
04:07AM EST


 

Airport Tracker/Info


-or-


 

Live Flight TrackerFlight Track Log ✈ N199CG ✈ 20-May-2013 ✈ KBTP - KHBI

Flight Track Log - Related Links

Times and Time Zones

All times are in EDT time to prevent confusion due to time zone crossing. See the N199CG flight status page for this flight to view local times or setup timezone preferences in your user account.

Time Position Orientation Groundspeed Altitude Reporting Facility
EDT Latitude Longitude Course Direction KTS MPH feet Rate Location/Type
06:08PM 40.3672 -79.9463 180° South  Level Estimated
06:09PM 40.2991 -79.9397 176° South  Level FlightAware Approximate
06:10PM 40.2309 -79.9390 180° South  Level Estimated
06:10PM 40.3764 -80.0000 180° South 197 227 10,900  Level Cleveland Center
06:11PM 40.1627 -79.9360 178° South  Level FlightAware Approximate
06:11PM 40.3117 -79.9978 179° South 209 241 11,000  Level Cleveland Center
06:12PM 40.0944 -79.9354 180° South  Level Estimated
06:12PM 40.2533 -79.9983 180° South 217 250 12,600  Level Cleveland Center
06:13PM 40.0262 -79.9336 179° South  Level FlightAware Approximate
06:13PM 40.1992 -79.9958 178° South 212 244 13,600  Level Cleveland Center
06:14PM 39.9580 -79.9329 180° South  Level Estimated
06:14PM 40.1386 -79.9939 179° South 207 238 14,800  Level Cleveland Center
06:15PM 39.8897 -79.9332 180° South  Level FlightAware Approximate
06:15PM 40.0822 -79.9917 178° South 207 238 15,800  Level Cleveland Center
06:16PM 39.8215 -79.9325 180° South  Level Estimated
06:16PM 40.0281 -79.9919 180° South 202 232 16,900  Level Cleveland Center
06:17PM 39.9761 -79.9897 178° South 196 226 17,800 780 Climbing Cleveland Center
06:18PM 39.9239 -79.9875 178° South 196 226 18,500 720 Climbing Cleveland Center
06:19PM 39.8697 -79.9853 178° South 196 226 19,300 660 Climbing Cleveland Center
06:20PM 39.8175 -79.9858 180° South 196 226 19,900 300 Climbing Cleveland Center
06:21PM 39.7572 -79.9836 178° South 201 231 19,900  Level Cleveland Center
06:22PM 39.6944 -79.9842 180° South 221 254 19,900  Level Cleveland Center
06:24PM 39.5775 -79.9831 180° South 225 259 19,900  Level Washington Center
06:25PM 39.5089 -79.9761 176° South 237 273 19,900  Level Washington Center
06:26PM 39.4419 -79.9803 183° South 242 278 19,900  Level Washington Center
06:27PM 39.3753 -79.9789 179° South 247 284 19,900  Level Washington Center
06:28PM 39.3067 -79.9772 179° South 247 284 19,900  Level Washington Center
06:29PM 39.2400 -79.9761 179° South 247 284 19,900  Level Washington Center
06:30PM 39.1733 -79.9719 177° South 247 284 19,900  Level Washington Center
06:31PM 39.1067 -79.9706 179° South 247 284 19,900  Level Washington Center
06:32PM 39.0400 -79.9694 179° South 247 284 19,900  Level Washington Center
06:33PM 38.9772 -79.9761 185° South 256 295 19,900  Level Washington Center
06:34PM 38.9086 -79.9747 179° South 256 295 19,900  Level Washington Center
06:35PM 38.8336 -79.9703 177° South 251 289 19,900  Level Washington Center
06:36PM 38.7669 -79.9689 179° South 251 289 19,900  Level Washington Center
06:37PM 38.6983 -79.9675 179° South 251 289 19,900  Level Washington Center
06:38PM 38.6358 -79.9667 179° South 251 289 19,900  Level Washington Center
06:39PM 38.5689 -79.9678 181° South 251 289 19,900 -120 Level Washington Center
06:40PM 38.4992 -79.9903 194° South 251 289 19,700 -900 Descending Washington Center
06:41PM 38.4275 -80.0125 194° South 263 303 18,100 -1,620 Descending Washington Center
06:42PM 38.3397 -80.0206 184° South 281 323 16,500 -1,080 Descending Washington Center
06:43PM 38.2606 -80.0211 180° South 292 336 16,000 -300 Descending Washington Center
06:44PM 38.1856 -80.0142 176° South 287 330 16,000  Level Washington Center
06:45PM 38.1189 -80.0103 177° South 277 319 16,000  Level Washington Center
06:46PM 38.0461 -80.0086 179° South 271 312 16,000  Level Washington Center
06:47PM 37.9731 -80.0069 179° South 271 312 16,000  Level Washington Center
06:48PM 37.8878 -79.9992 176° South 271 312 16,000  Level Washington Center
06:49PM 37.8169 -79.9978 179° South 271 312 16,000  Level Washington Center
06:50PM 37.7419 -79.9958 179° South 271 312 16,000 -60 Level Washington Center
06:51PM 37.6711 -79.9917 177° South 271 312 15,900 -60 Descending Washington Center
06:52PM 37.6089 -79.9881 177° South 266 306 15,900  Level Washington Center
06:53PM 37.5400 -79.9842 177° South 260 299 15,900  Level Washington Center
06:54PM 37.4714 -79.9828 179° South 254 292 15,900  Level Washington Center
06:55PM 37.3964 -79.9786 177° South 254 292 15,900  Level Washington Center
06:56PM 37.3275 -79.9772 179° South 254 292 15,900  Level Washington Center
06:57PM 37.2589 -79.9733 177° South 254 292 15,900  Level Washington Center
06:58PM 37.1986 -79.9672 175° South 254 292 15,900  Level Washington Center
06:59PM 37.1319 -79.9658 179° South 254 292 15,900  Level Washington Center
07:00PM 37.0653 -79.9622 178° South 254 292 15,900 -300 Level Washington Center
07:01PM 36.9883 -79.9578 177° South 254 292 15,400 -960 Descending Washington Center
07:02PM 36.9153 -79.9536 177° South 254 292 14,000 -780 Descending Washington Center
07:03PM 36.8383 -79.9494 178° South 264 304 13,900 -60 Descending Washington Center
07:04PM 36.7694 -79.9481 179° South 264 304 13,900  Level Washington Center
07:05PM 36.7050 -79.9444 177° South 264 304 13,900  Level Washington Center
07:06PM 36.6319 -79.9403 177° South 264 304 13,900  Level Washington Center
07:07PM 36.5611 -79.9389 179° South 264 304 13,900  Level Washington Center
07:08PM 36.5214 -79.9339 174° South 267 307 13,900  Level Atlanta Center
07:09PM 36.4544 -79.9294 177° South 267 307 13,900  Level Atlanta Center
07:10PM 36.3817 -79.9281 179° South 267 307 13,900 -540 Level Atlanta Center
07:11PM 36.3064 -79.9242 178° South 262 302 12,900 -900 Descending Atlanta Center
07:12PM 36.2417 -79.9197 177° South 267 307 12,100 -960 Descending Atlanta Center
07:13PM 36.1683 -79.9158 178° South 267 307 11,000 -1,380 Descending Atlanta Center
07:14PM 36.0953 -79.9144 179° South 273 314 9,400 -1,620 Descending Atlanta Center
07:15PM 36.0242 -79.9103 177° South 273 314 7,800 -1,800 Descending Atlanta Center
07:16PM 35.9533 -79.9089 179° South 254 292 5,800 -1,860 Descending Atlanta Center
07:17PM 35.8864 -79.9072 179° South 249 287 4,100 -1,140 Descending Atlanta Center
07:18PM 35.8406 -79.9017 174° South 239 275 3,600 -540 Descending Atlanta Center
07:22PM 35.7231 -79.8879 171° South  Level FlightAware Approximate
07:29PM 35.6500 -79.8833 180° South  Level FlightAware Approximate
07:30PM 35.6545 -79.8948 180° South  Level Estimated
07:31PM 35.6545 -79.8948 180° South  Level Estimated